createdAt,value
2018-03-07T00:00:33.490Z,259.20
2018-03-07T00:03:01.505Z,273.62
2018-03-07T00:05:32.221Z,268.42
2018-03-07T00:08:01.205Z,259.73
2018-03-07T00:10:33.697Z,258.60
2018-03-07T00:13:02.489Z,263.95
2018-03-07T00:15:31.467Z,274.85
2018-03-07T00:17:59.498Z,267.83
2018-03-07T00:20:31.377Z,247.18
2018-03-07T00:22:59.424Z,254.63
2018-03-07T00:25:30.893Z,240.98
2018-03-07T00:27:58.937Z,257.02
2018-03-07T00:30:28.892Z,252.98
2018-03-07T00:32:56.935Z,242.52
2018-03-07T00:35:25.949Z,257.10
2018-03-07T00:37:54.681Z,243.45
2018-03-07T00:40:22.708Z,266.73
2018-03-07T00:42:51.705Z,234.55
2018-03-07T00:45:21.621Z,246.87
2018-03-07T00:47:51.621Z,238.25
2018-03-07T00:50:20.632Z,244.48
2018-03-07T00:52:49.421Z,236.05
2018-03-07T00:55:17.457Z,238.75
2018-03-07T00:57:45.493Z,228.93
2018-03-07T01:00:18.329Z,240.27
2018-03-07T01:02:46.377Z,229.77
2018-03-07T01:05:14.417Z,238.77
2018-03-07T01:07:45.797Z,234.75
2018-03-07T01:10:14.809Z,224.45
2018-03-07T01:12:42.837Z,227.10
2018-03-07T01:15:18.696Z,224.23
2018-03-07T01:17:49.457Z,231.70
2018-03-07T01:20:20.621Z,234.40
2018-03-07T01:22:48.652Z,209.43
2018-03-07T01:25:20.085Z,238.75
2018-03-07T01:27:52.749Z,205.57
2018-03-07T01:30:25.423Z,228.12
2018-03-07T01:32:54.392Z,227.00
2018-03-07T01:35:23.369Z,224.37
2018-03-07T01:37:59.245Z,227.20
2018-03-07T01:40:29.043Z,244.35
2018-03-07T01:42:57.064Z,224.80
2018-03-07T01:45:27.017Z,233.52
2018-03-07T01:47:58.993Z,230.85
2018-03-07T01:50:27.049Z,239.82
2018-03-07T01:52:55.109Z,246.87
2018-03-07T01:55:30.840Z,265.12
2018-03-07T01:57:58.873Z,242.68
2018-03-07T02:00:34.676Z,239.98
2018-03-07T02:03:02.816Z,224.45
2018-03-07T02:05:35.552Z,239.05
2018-03-07T02:08:09.327Z,242.13
2018-03-07T02:10:38.061Z,253.12
2018-03-07T02:13:06.861Z,237.85
2018-03-07T02:15:42.961Z,228.70
2018-03-07T02:18:16.592Z,232.00
2018-03-07T02:20:49.573Z,230.98
2018-03-07T02:23:18.565Z,217.60
2018-03-07T02:25:46.596Z,244.82
2018-03-07T02:28:16.545Z,248.40
2018-03-07T02:30:44.581Z,230.98
2018-03-07T02:33:14.540Z,226.88
2018-03-07T02:35:46.294Z,231.10
2018-03-07T02:38:24.093Z,221.32
2018-03-07T02:40:52.112Z,249.65
2018-03-07T02:43:20.160Z,226.75
2018-03-07T02:45:50.136Z,251.07
2018-03-07T02:48:18.172Z,216.23
2018-03-07T02:50:47.211Z,199.05
2018-03-07T02:53:17.229Z,235.80
2018-03-07T02:55:45.269Z,219.25
2018-03-07T02:58:13.313Z,229.30
2018-03-07T03:00:41.341Z,223.35
2018-03-07T03:03:10.285Z,219.52
2018-03-07T03:05:38.345Z,232.55
2018-03-07T03:08:09.748Z,231.20
2018-03-07T03:10:41.516Z,228.43
2018-03-07T03:13:12.281Z,232.45
2018-03-07T03:15:40.320Z,204.30
2018-03-07T03:18:09.120Z,225.32
2018-03-07T03:20:38.084Z,222.57
2018-03-07T03:23:07.081Z,242.73
2018-03-07T03:25:35.112Z,216.88
2018-03-07T03:28:03.144Z,216.68
2018-03-07T03:30:31.956Z,223.98
2018-03-07T03:33:05.742Z,210.90
2018-03-07T03:35:33.751Z,212.75
2018-03-07T03:38:08.312Z,188.32
2018-03-07T03:40:40.053Z,188.23
2018-03-07T03:43:09.081Z,192.37
2018-03-07T03:45:37.122Z,184.37
2018-03-07T03:48:05.168Z,190.45
2018-03-07T03:50:33.196Z,179.90
2018-03-07T03:53:05.642Z,165.62
2018-03-07T03:55:34.657Z,185.95
2018-03-07T03:58:02.661Z,175.73
2018-03-07T04:00:31.684Z,164.62
2018-03-07T04:02:59.704Z,166.18
2018-03-07T04:05:27.740Z,134.45
2018-03-07T04:07:58.676Z,142.85
2018-03-07T04:10:31.236Z,153.32
2018-03-07T04:12:59.280Z,152.62
2018-03-07T04:15:33.280Z,138.15
2018-03-07T04:18:03.260Z,126.82
2018-03-07T04:20:37.456Z,130.95
2018-03-07T04:23:06.460Z,129.10
2018-03-07T04:25:35.265Z,134.85
2018-03-07T04:28:16.785Z,121.00
2018-03-07T04:30:44.820Z,116.40
2018-03-07T04:33:12.854Z,115.62
2018-03-07T04:35:45.224Z,114.65
2018-03-07T04:38:25.865Z,127.55
2018-03-07T04:40:53.928Z,112.47
2018-03-07T04:43:25.532Z,102.45
2018-03-07T04:45:58.088Z,111.53
2018-03-07T04:48:27.085Z,119.22
2018-03-07T04:50:55.120Z,98.80
2018-03-07T04:53:23.148Z,99.03
2018-03-07T04:55:51.940Z,104.38
2018-03-07T04:58:20.896Z,102.80
2018-03-07T05:00:54.296Z,100.07
2018-03-07T05:03:22.348Z,101.15
2018-03-07T05:05:50.368Z,90.93
2018-03-07T05:08:20.356Z,96.78
2018-03-07T05:10:49.338Z,96.50
2018-03-07T05:13:21.752Z,85.50
2018-03-07T05:15:50.744Z,90.45
2018-03-07T05:18:18.772Z,93.50
2018-03-07T05:20:57.574Z,83.85
2018-03-07T05:23:28.640Z,92.03
2018-03-07T05:25:57.664Z,95.05
2018-03-07T05:28:26.452Z,87.80
2018-03-07T05:30:58.712Z,103.93
2018-03-07T05:33:27.508Z,93.10
2018-03-07T05:35:57.280Z,94.57
2018-03-07T05:38:26.280Z,91.30
2018-03-07T05:40:55.268Z,94.87
2018-03-07T05:43:23.288Z,93.03
2018-03-07T05:45:52.252Z,101.93
2018-03-07T05:48:25.748Z,91.10
2018-03-07T05:50:54.544Z,89.50
2018-03-07T05:53:25.368Z,98.85
2018-03-07T05:55:53.404Z,97.97
2018-03-07T05:58:22.426Z,110.20
2018-03-07T06:00:52.336Z,94.15
2018-03-07T06:03:20.360Z,94.28
2018-03-07T06:05:50.340Z,93.35
2018-03-07T06:08:19.316Z,99.18
2018-03-07T06:10:49.228Z,96.90
2018-03-07T06:13:18.216Z,93.32
2018-03-07T06:15:46.244Z,81.47
2018-03-07T06:18:14.272Z,83.82
2018-03-07T06:20:44.276Z,85.38
2018-03-07T06:23:15.752Z,79.55
2018-03-07T06:25:45.536Z,69.18
2018-03-07T06:28:14.532Z,76.60
2018-03-07T06:30:42.564Z,73.97
2018-03-07T06:33:10.596Z,65.47
2018-03-07T06:35:43.379Z,67.57
2018-03-07T06:38:13.172Z,61.55
2018-03-07T06:40:41.325Z,60.75
2018-03-07T06:43:09.333Z,59.35
2018-03-07T06:45:37.376Z,59.25
2018-03-07T06:48:12.591Z,62.90
2018-03-07T06:50:41.588Z,58.55
2018-03-07T06:53:09.628Z,53.08
2018-03-07T06:55:39.584Z,61.10
2018-03-07T06:58:07.617Z,65.00
2018-03-07T07:00:35.640Z,58.87
2018-03-07T07:03:05.448Z,51.15
2018-03-07T07:05:34.432Z,60.05
2018-03-07T07:08:05.292Z,58.40
2018-03-07T07:10:34.285Z,68.97
2018-03-07T07:13:03.972Z,57.50
2018-03-07T07:15:32.952Z,54.13
2018-03-07T07:18:05.420Z,56.13
2018-03-07T07:20:34.420Z,61.50
2018-03-07T07:23:02.449Z,59.70
2018-03-07T07:25:33.633Z,56.78
2018-03-07T07:28:01.660Z,61.33
2018-03-07T07:30:41.716Z,53.17
2018-03-07T07:33:09.724Z,51.00
2018-03-07T07:35:41.580Z,50.17
2018-03-07T07:38:09.608Z,49.47
2018-03-07T07:40:38.540Z,47.17
2018-03-07T07:43:06.596Z,39.17
2018-03-07T07:45:39.592Z,41.58
2018-03-07T07:48:15.268Z,42.53
2018-03-07T07:50:44.131Z,39.88
2018-03-07T07:53:12.120Z,45.92
2018-03-07T07:55:40.912Z,41.45
2018-03-07T07:58:12.852Z,41.70
2018-03-07T08:00:42.923Z,44.17
2018-03-07T08:03:11.788Z,35.60
2018-03-07T08:05:55.585Z,42.72
2018-03-07T08:11:19.092Z,36.80
2018-03-07T08:13:52.888Z,40.95
2018-03-07T08:16:20.920Z,34.30
2018-03-07T08:18:57.141Z,36.83
2018-03-07T08:21:32.134Z,34.63
2018-03-07T08:24:01.044Z,45.03
2018-03-07T08:26:41.468Z,34.60
2018-03-07T08:29:09.499Z,32.80
2018-03-07T08:31:40.200Z,36.95
2018-03-07T08:34:11.448Z,35.42
2018-03-07T08:36:40.440Z,28.87
2018-03-07T08:39:09.424Z,35.83
2018-03-07T08:41:37.456Z,33.00
2018-03-07T08:46:59.890Z,34.58
2018-03-07T08:49:34.443Z,34.15
2018-03-07T08:52:04.384Z,29.25
2018-03-07T08:54:56.274Z,30.50
2018-03-07T08:57:30.728Z,29.12
2018-03-07T08:59:58.764Z,27.33
2018-03-07T09:02:28.696Z,34.25
2018-03-07T09:04:57.713Z,26.92
2018-03-07T09:07:25.740Z,27.40
2018-03-07T09:09:53.765Z,27.87
2018-03-07T09:12:26.944Z,24.10
2018-03-07T09:14:58.824Z,19.37
2018-03-07T09:17:30.573Z,21.07
2018-03-07T09:19:58.604Z,23.30
2018-03-07T09:22:32.112Z,22.63
2018-03-07T09:25:02.024Z,23.77
2018-03-07T09:27:37.368Z,21.27
2018-03-07T09:30:07.309Z,17.60
2018-03-07T09:32:37.344Z,22.10
2018-03-07T09:35:06.141Z,18.13
2018-03-07T09:37:35.856Z,18.00
2018-03-07T09:40:03.876Z,18.30
2018-03-07T09:42:37.744Z,18.50
2018-03-07T09:45:19.076Z,15.63
2018-03-07T09:47:51.460Z,17.60
2018-03-07T09:50:33.932Z,17.13
2018-03-07T09:53:08.244Z,17.70
2018-03-07T09:55:43.076Z,19.10
2018-03-07T09:58:11.108Z,19.93
2018-03-07T10:00:39.900Z,21.00
2018-03-07T10:03:07.925Z,19.20
2018-03-07T10:05:56.229Z,20.43
2018-03-07T10:08:26.137Z,19.10
2018-03-07T10:10:57.949Z,18.10
2018-03-07T10:13:25.993Z,19.60
2018-03-07T10:15:54.012Z,18.60
2018-03-07T10:18:46.197Z,16.57
2018-03-07T10:21:33.909Z,19.70
2018-03-07T10:24:05.533Z,28.08
2018-03-07T10:26:39.512Z,21.50
2018-03-07T10:29:13.333Z,23.27
2018-03-07T10:31:41.356Z,17.58
2018-03-07T10:34:13.048Z,21.23
2018-03-07T10:36:51.636Z,18.42
2018-03-07T10:39:19.683Z,18.27
2018-03-07T10:41:56.164Z,17.62
2018-03-07T10:44:47.161Z,20.98
2018-03-07T10:53:18.696Z,20.77
2018-03-07T10:55:57.803Z,21.48
2018-03-07T10:58:32.520Z,18.85
2018-03-07T11:01:14.905Z,26.23
2018-03-07T11:03:57.704Z,19.62
2018-03-07T11:06:47.008Z,20.27
2018-03-07T11:09:16.036Z,17.42
2018-03-07T11:12:04.440Z,19.65
2018-03-07T11:14:42.866Z,26.20
2018-03-07T11:17:12.818Z,17.70
2018-03-07T11:19:50.680Z,17.23
2018-03-07T11:22:21.660Z,19.92
2018-03-07T11:24:50.640Z,16.10
2018-03-07T11:27:23.437Z,14.93
2018-03-07T11:29:57.340Z,16.40
2018-03-07T11:32:45.224Z,12.02
2018-03-07T11:38:13.892Z,12.70
2018-03-07T11:40:48.380Z,8.68
2018-03-07T11:43:25.472Z,7.72
2018-03-07T11:45:58.992Z,6.55
2018-03-07T11:48:56.180Z,5.97
2018-03-07T11:54:24.100Z,5.07
2018-03-07T11:56:55.556Z,4.93
2018-03-07T11:59:30.976Z,7.78
2018-03-07T12:02:04.492Z,4.82
2018-03-07T12:04:36.272Z,4.87
2018-03-07T12:07:13.727Z,5.20
2018-03-07T12:09:46.132Z,4.90
2018-03-07T12:12:14.147Z,4.40
2018-03-07T12:14:49.432Z,5.68
2018-03-07T12:17:18.432Z,4.53
2018-03-07T12:19:46.448Z,7.00
2018-03-07T12:22:20.412Z,3.40
2018-03-07T12:24:50.424Z,4.10
2018-03-07T12:27:18.452Z,4.03
2018-03-07T12:29:46.496Z,6.65
2018-03-07T12:32:15.284Z,3.62
2018-03-07T12:34:43.316Z,3.90
2018-03-07T12:37:12.336Z,3.75
2018-03-07T12:39:44.588Z,4.03
2018-03-07T12:42:13.564Z,5.37
2018-03-07T12:44:43.584Z,4.25
2018-03-07T12:47:12.580Z,4.25
2018-03-07T12:49:40.628Z,4.12
2018-03-07T12:52:09.644Z,4.90
2018-03-07T12:54:38.656Z,4.07
2018-03-07T12:57:06.682Z,5.10
2018-03-07T12:59:35.698Z,5.37
2018-03-07T13:02:03.714Z,4.60
2018-03-07T13:04:36.128Z,4.07
2018-03-07T13:07:04.179Z,3.80
2018-03-07T13:09:37.600Z,3.33
2018-03-07T13:12:07.636Z,3.85
2018-03-07T13:14:50.488Z,4.07
2018-03-07T13:17:18.520Z,3.40
2018-03-07T13:19:46.584Z,3.80
2018-03-07T13:22:17.936Z,3.30
2018-03-07T13:24:45.964Z,3.30
2018-03-07T13:27:18.376Z,3.20
2018-03-07T13:29:46.452Z,3.95
2018-03-07T13:32:18.427Z,3.43
2018-03-07T13:34:50.268Z,3.50
2018-03-07T13:37:18.304Z,3.13
2018-03-07T13:39:47.320Z,8.17
2018-03-07T13:42:22.360Z,4.10
2018-03-07T13:44:56.132Z,3.40
2018-03-07T13:47:25.174Z,3.20
2018-03-07T13:49:53.176Z,5.78
2018-03-07T13:52:21.207Z,17.95
2018-03-07T13:54:55.480Z,7.72
2018-03-07T13:57:24.512Z,6.75
2018-03-07T13:59:56.536Z,10.40
2018-03-07T14:02:30.348Z,6.95
2018-03-07T14:05:00.296Z,8.80
2018-03-07T14:07:34.920Z,8.43
2018-03-07T14:10:02.956Z,7.80
2018-03-07T14:12:38.311Z,15.32
2018-03-07T14:15:08.275Z,8.43
2018-03-07T14:17:39.164Z,7.25
2018-03-07T14:20:11.371Z,9.18
2018-03-07T14:22:40.171Z,4.30
2018-03-07T14:25:08.200Z,7.37
2018-03-07T14:27:48.126Z,3.70
2018-03-07T14:30:21.040Z,7.43
2018-03-07T14:32:56.240Z,3.90
2018-03-07T14:35:37.176Z,4.18
2018-03-07T14:38:05.976Z,4.30
2018-03-07T14:40:40.107Z,8.20
2018-03-07T14:43:10.556Z,5.95
2018-03-07T14:45:46.709Z,3.25
2018-03-07T14:48:15.722Z,2.35
2018-03-07T14:50:56.836Z,4.85
2018-03-07T14:53:42.912Z,2.25
2018-03-07T14:56:11.708Z,4.53
2018-03-07T14:58:41.487Z,2.60
2018-03-07T15:01:24.023Z,2.80
2018-03-07T15:03:56.256Z,2.80
2018-03-07T15:06:31.695Z,2.30
2018-03-07T15:09:13.135Z,2.47
2018-03-07T15:11:59.727Z,2.10
2018-03-07T15:14:28.510Z,2.00
2018-03-07T15:16:59.224Z,1.70
2018-03-07T15:19:37.592Z,1.57
2018-03-07T15:22:06.623Z,2.93
2018-03-07T15:24:54.423Z,1.23
2018-03-07T15:27:22.431Z,2.07
2018-03-07T15:29:56.759Z,12.00
2018-03-07T15:32:41.351Z,2.57
2018-03-07T15:35:09.367Z,2.77
2018-03-07T15:37:44.891Z,1.47
2018-03-07T15:40:12.915Z,1.83
2018-03-07T15:42:46.795Z,0.80
2018-03-07T15:45:15.775Z,1.10
2018-03-07T15:47:56.396Z,4.10
2018-03-07T15:50:41.135Z,0.70
2018-03-07T15:53:15.431Z,1.08
2018-03-07T15:55:55.850Z,0.98
2018-03-07T16:01:18.127Z,1.00
2018-03-07T16:03:47.033Z,3.43
2018-03-07T16:06:15.052Z,0.93
2018-03-07T16:08:44.969Z,0.80
2018-03-07T16:11:12.991Z,2.50
2018-03-07T16:13:40.999Z,0.80
2018-03-07T16:16:09.035Z,1.87
2018-03-07T16:18:43.507Z,3.78
2018-03-07T16:21:13.406Z,1.63
2018-03-07T16:23:47.612Z,2.83
2018-03-07T16:26:28.467Z,1.37
2018-03-07T16:28:57.247Z,2.93
2018-03-07T16:31:25.259Z,1.40
2018-03-07T16:33:53.291Z,1.90
2018-03-07T16:36:27.675Z,3.07
2018-03-07T16:38:55.691Z,2.67
2018-03-07T16:41:28.843Z,1.52
2018-03-07T16:43:56.883Z,1.55
2018-03-07T16:46:25.795Z,1.08
2018-03-07T16:48:53.824Z,0.85
2018-03-07T16:51:21.839Z,2.25
2018-03-07T16:53:49.847Z,1.65
2018-03-07T16:56:23.433Z,1.10
2018-03-07T16:58:51.434Z,1.27
2018-03-07T17:01:19.466Z,2.05
2018-03-07T17:03:47.487Z,2.15
2018-03-07T17:06:15.503Z,1.60
2018-03-07T17:08:44.492Z,1.95
2018-03-07T17:11:12.503Z,1.37
2018-03-07T17:13:40.528Z,5.07
2018-03-07T17:16:10.550Z,1.37
2018-03-07T17:18:39.491Z,5.20
2018-03-07T17:21:09.435Z,2.70
2018-03-07T17:23:43.683Z,1.25
2018-03-07T17:26:13.455Z,1.37
2018-03-07T17:28:41.510Z,1.35
2018-03-07T17:31:21.319Z,0.85
2018-03-07T17:33:54.440Z,1.20
2018-03-07T17:36:24.347Z,2.85
2018-03-07T17:38:53.263Z,3.58
2018-03-07T17:41:31.647Z,3.28
2018-03-07T17:44:01.829Z,4.50
2018-03-07T17:46:29.839Z,3.00
2018-03-07T17:48:59.779Z,1.65
2018-03-07T17:51:39.799Z,2.03
2018-03-07T17:54:12.063Z,2.75
2018-03-07T17:56:41.915Z,1.10
2018-03-07T17:59:10.899Z,1.67
2018-03-07T18:01:40.823Z,6.22
2018-03-07T18:04:19.715Z,2.45
2018-03-07T18:06:54.662Z,1.23
2018-03-07T18:09:22.675Z,2.45
2018-03-07T18:11:51.647Z,3.00
2018-03-07T18:14:26.743Z,6.57
2018-03-07T18:16:54.755Z,2.05
2018-03-07T18:19:22.774Z,1.77
2018-03-07T18:21:55.087Z,1.85
2018-03-07T18:24:29.698Z,1.62
2018-03-07T18:26:58.722Z,5.07
2018-03-07T18:29:32.628Z,6.55
2018-03-07T18:32:12.122Z,1.98
2018-03-07T18:34:40.126Z,3.20
2018-03-07T18:37:08.158Z,3.08
2018-03-07T18:39:39.012Z,1.33
2018-03-07T18:42:07.962Z,1.98
2018-03-07T18:44:37.996Z,2.67
2018-03-07T18:47:06.022Z,2.08
2018-03-07T18:49:35.937Z,1.50
2018-03-07T18:52:04.766Z,1.87
2018-03-07T18:54:41.306Z,1.95
2018-03-07T18:57:11.098Z,2.08
2018-03-07T18:59:39.166Z,3.35
2018-03-07T19:02:20.294Z,5.28
2018-03-07T19:04:48.446Z,3.00
2018-03-07T19:07:17.666Z,3.22
2018-03-07T19:09:46.553Z,4.12
2018-03-07T19:12:14.575Z,2.10
2018-03-07T19:14:51.221Z,4.15
2018-03-07T19:17:21.214Z,17.98
2018-03-07T19:19:51.202Z,20.08
2018-03-07T19:22:20.011Z,37.08
2018-03-07T19:24:48.954Z,252.32
2018-03-07T19:27:17.982Z,26.98
2018-03-07T19:29:46.017Z,15.73
2018-03-07T19:32:14.898Z,9.43
2018-03-07T19:34:46.058Z,23.25
2018-03-07T19:37:15.094Z,8.27
2018-03-07T19:39:43.113Z,12.57
2018-03-07T19:42:12.023Z,4.35
2018-03-07T19:44:43.166Z,7.28
2018-03-07T19:47:12.118Z,7.90
2018-03-07T19:49:40.158Z,6.80
2018-03-07T19:52:08.174Z,4.03
2018-03-07T19:54:38.100Z,6.30
2018-03-07T19:57:16.724Z,3.85
2018-03-07T19:59:46.615Z,2.83
2018-03-07T20:02:14.642Z,8.30
2018-03-07T20:04:43.609Z,2.08
2018-03-07T20:07:23.302Z,4.62
2018-03-07T20:09:54.570Z,6.03
2018-03-07T20:12:28.210Z,26.12
2018-03-07T20:14:57.993Z,20.42
2018-03-07T20:17:27.302Z,13.80
2018-03-07T20:19:55.346Z,32.53
2018-03-07T20:22:24.350Z,26.62
2018-03-07T20:24:54.374Z,8.27
2018-03-07T20:27:23.345Z,8.75
2018-03-07T20:29:51.378Z,28.80
2018-03-07T20:32:20.334Z,39.95
2018-03-07T20:34:51.590Z,56.55
2018-03-07T20:37:27.101Z,36.78
2018-03-07T20:39:55.142Z,28.55
2018-03-07T20:42:24.162Z,30.02
2018-03-07T20:44:52.206Z,38.72
2018-03-07T20:47:26.042Z,35.03
2018-03-07T20:49:54.180Z,51.92
2018-03-07T20:52:24.101Z,23.17
2018-03-07T20:54:52.966Z,7.18
2018-03-07T20:57:25.361Z,8.00
2018-03-07T20:59:55.422Z,6.55
2018-03-07T21:02:26.607Z,5.15
2018-03-07T21:04:54.733Z,10.80
2018-03-07T21:07:23.002Z,5.72
2018-03-07T21:09:53.493Z,18.52
2018-03-07T21:12:23.257Z,2.60
2018-03-07T21:14:52.270Z,3.92
2018-03-07T21:17:29.670Z,3.75
2018-03-07T21:19:57.949Z,4.28
2018-03-07T21:22:26.952Z,20.35
2018-03-07T21:24:57.197Z,8.13
2018-03-07T21:27:25.273Z,3.95
2018-03-07T21:29:53.753Z,7.87
2018-03-07T21:32:23.933Z,4.80
2018-03-07T21:34:52.009Z,5.05
2018-03-07T21:37:20.054Z,4.70
2018-03-07T21:39:48.865Z,5.15
2018-03-07T21:42:18.759Z,6.07
2018-03-07T21:44:47.573Z,5.87
2018-03-07T21:47:15.653Z,4.07
2018-03-07T21:49:43.693Z,5.68
2018-03-07T21:52:13.761Z,5.50
2018-03-07T21:54:42.809Z,3.75
2018-03-07T21:57:11.785Z,6.87
2018-03-07T21:59:39.805Z,6.47
2018-03-07T22:02:08.846Z,4.10
2018-03-07T22:04:43.262Z,4.87
2018-03-07T22:07:11.497Z,9.43
2018-03-07T22:09:39.565Z,5.53
2018-03-07T22:12:08.409Z,3.85
2018-03-07T22:14:41.314Z,6.28
2018-03-07T22:17:09.530Z,4.78
2018-03-07T22:19:37.573Z,4.55
2018-03-07T22:22:09.425Z,13.88
2018-03-07T22:24:38.418Z,8.30
2018-03-07T22:27:07.285Z,15.43
2018-03-07T22:29:35.664Z,25.02
2018-03-07T22:32:06.092Z,11.43
2018-03-07T22:34:34.877Z,10.25
2018-03-07T22:37:05.305Z,9.63
2018-03-07T22:39:33.625Z,8.38
2018-03-07T22:42:03.625Z,7.37
2018-03-07T22:44:33.280Z,7.90
2018-03-07T22:47:01.537Z,5.57
2018-03-07T22:49:30.532Z,5.50
2018-03-07T22:51:58.641Z,4.80
2018-03-07T22:54:27.388Z,5.60
2018-03-07T22:57:00.107Z,8.75
2018-03-07T22:59:29.077Z,7.85
2018-03-07T23:01:57.125Z,7.18
2018-03-07T23:04:25.206Z,3.50
2018-03-07T23:06:54.933Z,5.75
2018-03-07T23:09:22.976Z,7.20
2018-03-07T23:11:51.978Z,8.60
2018-03-07T23:14:20.040Z,3.60
2018-03-07T23:16:48.057Z,8.52
2018-03-07T23:19:16.084Z,3.35
2018-03-07T23:21:44.116Z,2.97
2018-03-07T23:24:12.373Z,2.90
2018-03-07T23:26:50.844Z,3.10
2018-03-07T23:29:23.043Z,3.15
2018-03-07T23:31:53.057Z,3.17
2018-03-07T23:34:25.615Z,4.40
2018-03-07T23:36:54.337Z,6.05
2018-03-07T23:39:25.981Z,3.33
2018-03-07T23:41:54.601Z,4.45
2018-03-07T23:44:23.625Z,2.40
2018-03-07T23:46:52.656Z,2.60
2018-03-07T23:49:26.347Z,3.12
2018-03-07T23:51:56.221Z,2.75
2018-03-07T23:54:26.241Z,3.65
2018-03-07T23:56:54.285Z,6.40
2018-03-07T23:59:22.552Z,3.12
